createdAt,value
2023-04-24T00:01:03.813Z,9.88
2023-04-24T00:03:31.095Z,9.93
2023-04-24T00:05:57.915Z,9.85
2023-04-24T00:08:24.873Z,9.82
2023-04-24T00:10:53.601Z,8.90
2023-04-24T00:13:20.324Z,8.32
2023-04-24T00:15:48.329Z,8.15
2023-04-24T00:18:14.918Z,7.97
2023-04-24T00:20:41.752Z,8.73
2023-04-24T00:23:08.372Z,7.25
2023-04-24T00:25:34.984Z,8.30
2023-04-24T00:28:01.928Z,8.40
2023-04-24T00:30:29.473Z,7.95
2023-04-24T00:32:56.080Z,8.07
2023-04-24T00:35:24.520Z,7.10
2023-04-24T00:37:52.352Z,7.20
2023-04-24T00:40:19.134Z,7.80
2023-04-24T00:42:46.326Z,9.05
2023-04-24T00:45:13.147Z,8.98
2023-04-24T00:47:40.101Z,9.05
2023-04-24T00:50:07.729Z,8.48
2023-04-24T00:52:35.182Z,10.90
2023-04-24T00:55:01.847Z,9.57
2023-04-24T00:57:29.036Z,10.95
2023-04-24T00:59:55.721Z,9.85
2023-04-24T01:02:24.212Z,11.40
2023-04-24T01:04:52.196Z,11.27
2023-04-24T01:07:21.971Z,9.35
2023-04-24T01:09:50.015Z,14.50
2023-04-24T01:12:16.647Z,14.77
2023-04-24T01:14:45.663Z,14.30
2023-04-24T01:17:12.745Z,15.75
2023-04-24T01:19:39.591Z,14.88
2023-04-24T01:22:12.785Z,17.52
2023-04-24T01:24:43.973Z,17.88
2023-04-24T01:27:13.201Z,20.90
2023-04-24T01:29:40.533Z,22.30
2023-04-24T01:32:08.313Z,17.98
2023-04-24T01:34:35.491Z,18.88
2023-04-24T01:37:02.335Z,20.38
2023-04-24T01:39:29.660Z,18.13
2023-04-24T01:41:57.252Z,21.35
2023-04-24T01:44:24.698Z,18.60
2023-04-24T01:46:51.861Z,22.80
2023-04-24T01:49:18.747Z,16.48
2023-04-24T01:51:46.036Z,22.08
2023-04-24T01:54:13.175Z,24.40
2023-04-24T01:56:44.225Z,24.33
2023-04-24T01:59:14.132Z,25.33
2023-04-24T02:01:40.908Z,23.80
2023-04-24T02:04:08.676Z,21.13
2023-04-24T02:06:36.286Z,18.10
2023-04-24T02:09:04.329Z,21.52
2023-04-24T02:11:31.169Z,20.52
2023-04-24T02:13:59.202Z,20.52
2023-04-24T02:16:27.127Z,18.52
2023-04-24T02:18:53.806Z,20.90
2023-04-24T02:21:20.459Z,22.65
2023-04-24T02:23:47.121Z,22.27
2023-04-24T02:26:14.013Z,24.88
2023-04-24T02:28:40.703Z,22.33
2023-04-24T02:31:07.543Z,26.38
2023-04-24T02:33:34.299Z,25.38
2023-04-24T02:36:02.892Z,26.65
2023-04-24T02:38:30.401Z,29.02
2023-04-24T02:40:57.003Z,29.25
2023-04-24T02:43:23.555Z,34.47
2023-04-24T02:45:50.658Z,30.48
2023-04-24T02:48:18.049Z,31.00
2023-04-24T02:50:45.087Z,29.08
2023-04-24T02:53:11.639Z,32.17
2023-04-24T02:55:38.279Z,31.80
2023-04-24T02:58:05.056Z,32.17
2023-04-24T03:00:31.608Z,32.83
2023-04-24T03:02:58.431Z,32.15
2023-04-24T03:05:25.396Z,38.67
2023-04-24T03:07:53.609Z,29.83
2023-04-24T03:10:23.497Z,34.33
2023-04-24T03:12:50.349Z,29.50
2023-04-24T03:15:18.883Z,34.67
2023-04-24T03:17:45.571Z,32.38
2023-04-24T03:20:13.138Z,32.53
2023-04-24T03:22:39.946Z,34.58
2023-04-24T03:25:10.280Z,29.90
2023-04-24T03:27:37.361Z,31.25
2023-04-24T03:30:32.503Z,29.00
2023-04-24T03:33:01.071Z,32.92
2023-04-24T03:35:31.197Z,26.60
2023-04-24T03:38:01.619Z,29.70
2023-04-24T03:40:46.922Z,29.55
2023-04-24T03:43:45.619Z,31.27
2023-04-24T03:46:13.107Z,29.90
2023-04-24T03:48:44.758Z,27.85
2023-04-24T03:51:11.886Z,29.25
2023-04-24T03:53:42.754Z,25.17
2023-04-24T03:56:11.277Z,29.60
2023-04-24T03:58:38.353Z,25.90
2023-04-24T04:01:06.595Z,25.92
2023-04-24T04:03:55.340Z,24.92
2023-04-24T04:06:29.499Z,22.17
2023-04-24T04:08:58.171Z,30.27
2023-04-24T04:11:25.263Z,25.38
2023-04-24T04:13:52.064Z,29.85
2023-04-24T04:16:21.381Z,26.15
2023-04-24T04:18:50.794Z,24.70
2023-04-24T04:21:17.754Z,25.38
2023-04-24T04:23:45.037Z,25.42
2023-04-24T04:26:22.073Z,24.23
2023-04-24T04:29:09.303Z,25.52
2023-04-24T04:31:41.993Z,24.60
2023-04-24T04:34:13.612Z,22.75
2023-04-24T04:36:43.957Z,22.48
2023-04-24T04:39:23.844Z,21.20
2023-04-24T04:42:01.435Z,21.02
2023-04-24T04:44:37.154Z,22.40
2023-04-24T04:47:09.758Z,31.33
2023-04-24T04:49:39.638Z,23.17
2023-04-24T04:52:10.968Z,24.42
2023-04-24T04:54:38.115Z,19.83
2023-04-24T04:57:04.707Z,21.23
2023-04-24T04:59:36.098Z,22.02
2023-04-24T05:02:07.275Z,21.92
2023-04-24T05:04:34.270Z,19.83
2023-04-24T05:07:01.190Z,22.38
2023-04-24T05:09:30.602Z,17.85
2023-04-24T05:12:03.300Z,18.57
2023-04-24T05:14:34.051Z,15.23
2023-04-24T05:17:01.186Z,20.10
2023-04-24T05:19:27.941Z,14.80
2023-04-24T05:21:54.710Z,17.98
2023-04-24T05:24:21.346Z,15.20
2023-04-24T05:27:26.409Z,14.85
2023-04-24T05:29:53.238Z,17.23
2023-04-24T05:32:19.887Z,16.13
2023-04-24T05:34:46.557Z,15.20
2023-04-24T05:37:14.462Z,16.65
2023-04-24T05:39:42.823Z,15.75
2023-04-24T05:42:09.642Z,14.70
2023-04-24T05:44:36.191Z,14.20
2023-04-24T05:47:03.032Z,14.75
2023-04-24T05:49:29.688Z,14.68
2023-04-24T05:51:58.462Z,13.02
2023-04-24T05:54:25.067Z,11.10
2023-04-24T05:56:52.461Z,11.15
2023-04-24T05:59:29.462Z,10.85
2023-04-24T06:01:57.894Z,8.00
2023-04-24T06:04:25.938Z,5.65
2023-04-24T06:06:56.734Z,6.57
2023-04-24T06:09:23.835Z,7.90
2023-04-24T06:11:51.454Z,7.32
2023-04-24T06:14:18.293Z,10.38
2023-04-24T06:17:03.557Z,8.10
2023-04-24T06:19:36.155Z,9.63
2023-04-24T06:22:03.659Z,7.78
2023-04-24T06:24:30.371Z,8.68
2023-04-24T06:26:59.935Z,7.10
2023-04-24T06:29:26.603Z,6.25
2023-04-24T06:31:53.387Z,6.32
2023-04-24T06:34:20.161Z,4.72
2023-04-24T06:36:47.973Z,6.00
2023-04-24T06:39:14.711Z,2.92
2023-04-24T06:41:41.342Z,3.00
2023-04-24T06:44:11.419Z,2.60
2023-04-24T06:46:39.780Z,4.32
2023-04-24T06:49:07.772Z,2.17
2023-04-24T06:51:34.451Z,3.00
2023-04-24T06:54:01.255Z,3.53
2023-04-24T06:56:29.781Z,3.22
2023-04-24T06:58:56.389Z,3.08
2023-04-24T07:01:23.033Z,2.55
2023-04-24T07:03:49.798Z,2.08
2023-04-24T07:06:17.700Z,1.80
2023-04-24T07:08:44.628Z,2.38
2023-04-24T07:11:11.266Z,2.00
2023-04-24T07:13:42.616Z,1.67
2023-04-24T07:16:09.848Z,1.27
2023-04-24T07:18:37.495Z,1.08
2023-04-24T07:21:04.154Z,1.20
2023-04-24T07:23:31.707Z,1.98
2023-04-24T07:25:58.566Z,3.20
2023-04-24T07:28:25.723Z,5.03
2023-04-24T07:30:54.829Z,2.40
2023-04-24T07:33:21.560Z,2.60
2023-04-24T07:35:50.472Z,2.20
2023-04-24T07:38:17.155Z,2.92
2023-04-24T07:40:43.807Z,1.45
2023-04-24T07:43:10.753Z,2.10
2023-04-24T07:45:38.609Z,1.90
2023-04-24T07:48:05.732Z,7.65
2023-04-24T07:50:32.471Z,5.63
2023-04-24T07:52:59.102Z,10.20
2023-04-24T07:55:28.364Z,8.32
2023-04-24T07:57:55.092Z,10.27
2023-04-24T08:00:22.788Z,12.63
2023-04-24T08:02:49.563Z,13.98
2023-04-24T08:05:16.467Z,19.45
2023-04-24T08:07:43.735Z,15.25
2023-04-24T08:10:14.329Z,25.65
2023-04-24T08:12:41.320Z,20.10
2023-04-24T08:15:08.677Z,16.85
2023-04-24T08:17:36.405Z,16.90
2023-04-24T08:20:06.012Z,18.90
2023-04-24T08:22:32.744Z,19.85
2023-04-24T08:25:01.058Z,18.02
2023-04-24T08:27:27.869Z,25.88
2023-04-24T08:29:55.150Z,19.90
2023-04-24T08:32:21.789Z,18.08
2023-04-24T08:34:49.661Z,17.30
2023-04-24T08:37:17.606Z,16.08
2023-04-24T08:39:44.428Z,14.63
2023-04-24T08:42:12.548Z,21.98
2023-04-24T08:44:39.489Z,16.85
2023-04-24T08:47:06.268Z,25.20
2023-04-24T08:49:34.464Z,18.55
2023-04-24T08:52:02.540Z,22.23
2023-04-24T08:54:29.870Z,25.85
2023-04-24T08:57:04.472Z,21.75
2023-04-24T08:59:32.302Z,17.20
2023-04-24T09:01:59.053Z,27.13
2023-04-24T09:04:26.493Z,28.13
2023-04-24T09:06:57.259Z,18.38
2023-04-24T09:09:26.698Z,23.40
2023-04-24T09:11:56.321Z,25.92
2023-04-24T09:14:24.597Z,20.88
2023-04-24T09:16:51.849Z,20.42
2023-04-24T09:19:18.893Z,22.17
2023-04-24T09:21:48.702Z,23.98
2023-04-24T09:24:18.755Z,19.05
2023-04-24T09:26:46.082Z,23.17
2023-04-24T09:29:17.829Z,14.13
2023-04-24T09:31:46.185Z,17.73
2023-04-24T09:34:13.039Z,19.73
2023-04-24T09:36:42.518Z,15.07
2023-04-24T09:39:17.531Z,14.77
2023-04-24T09:42:01.915Z,13.13
2023-04-24T09:44:29.449Z,12.32
2023-04-24T09:46:57.230Z,12.57
2023-04-24T09:49:26.019Z,14.32
2023-04-24T09:51:53.434Z,12.23
2023-04-24T09:54:23.502Z,10.25
2023-04-24T09:56:51.635Z,11.48
2023-04-24T09:59:20.328Z,10.43
2023-04-24T10:01:49.677Z,11.98
2023-04-24T10:04:21.601Z,16.50
2023-04-24T10:06:50.035Z,17.23
2023-04-24T10:09:22.311Z,10.65
2023-04-24T10:11:51.146Z,12.05
2023-04-24T10:14:21.598Z,10.82
2023-04-24T10:16:49.011Z,8.30
2023-04-24T10:19:16.621Z,7.72
2023-04-24T10:21:47.382Z,14.73
2023-04-24T10:24:18.973Z,9.75
2023-04-24T10:26:46.973Z,9.90
2023-04-24T10:29:16.445Z,11.35
2023-04-24T10:31:46.424Z,9.93
2023-04-24T10:34:15.252Z,9.10
2023-04-24T10:36:47.015Z,8.82
2023-04-24T10:39:16.171Z,6.45
2023-04-24T10:41:42.893Z,7.05
2023-04-24T10:44:15.909Z,10.27
2023-04-24T10:46:49.246Z,6.97
2023-04-24T10:49:15.963Z,7.90
2023-04-24T10:51:54.176Z,7.53
2023-04-24T10:54:25.873Z,5.95
2023-04-24T10:56:53.257Z,9.17
2023-04-24T10:59:27.992Z,6.55
2023-04-24T11:01:58.417Z,8.05
2023-04-24T11:04:32.732Z,6.13
2023-04-24T11:06:59.732Z,4.90
2023-04-24T11:09:32.737Z,5.60
2023-04-24T11:12:11.317Z,4.18
2023-04-24T11:14:56.357Z,4.53
2023-04-24T11:17:34.274Z,4.80
2023-04-24T11:20:25.960Z,5.22
2023-04-24T11:22:56.066Z,5.50
2023-04-24T11:25:24.347Z,6.13
2023-04-24T11:27:51.530Z,6.32
2023-04-24T11:30:20.445Z,5.82
2023-04-24T11:32:52.102Z,7.95
2023-04-24T11:35:22.088Z,7.13
2023-04-24T11:40:26.889Z,4.82
2023-04-24T11:42:56.425Z,5.75
2023-04-24T11:45:26.068Z,7.18
2023-04-24T11:47:52.938Z,7.78
2023-04-24T11:50:22.545Z,10.27
2023-04-24T11:52:50.590Z,5.47
2023-04-24T11:55:17.178Z,3.88
2023-04-24T11:57:45.622Z,4.28
2023-04-24T12:00:26.934Z,4.28
2023-04-24T12:03:07.476Z,5.93
2023-04-24T12:05:35.860Z,6.65
2023-04-24T12:08:02.794Z,3.22
2023-04-24T12:10:31.625Z,3.95
2023-04-24T12:13:00.933Z,7.03
2023-04-24T12:15:28.433Z,7.00
2023-04-24T12:17:56.356Z,6.15
2023-04-24T12:20:29.789Z,8.10
2023-04-24T12:22:58.851Z,6.65
2023-04-24T12:25:33.236Z,5.60
2023-04-24T12:28:06.279Z,4.93
2023-04-24T12:30:40.737Z,6.55
2023-04-24T12:33:07.761Z,4.28
2023-04-24T12:35:35.076Z,6.55
2023-04-24T12:38:15.631Z,3.78
2023-04-24T12:40:43.692Z,8.50
2023-04-24T12:43:20.965Z,5.88
2023-04-24T12:45:49.039Z,6.70
2023-04-24T12:48:15.905Z,4.90
2023-04-24T12:50:46.118Z,7.82
2023-04-24T12:53:13.423Z,5.40
2023-04-24T12:55:40.146Z,3.80
2023-04-24T12:58:06.893Z,7.75
2023-04-24T13:00:34.209Z,5.40
2023-04-24T13:03:02.525Z,5.75
2023-04-24T13:05:29.592Z,4.38
2023-04-24T13:07:56.361Z,6.53
2023-04-24T13:10:23.228Z,7.95
2023-04-24T13:12:50.520Z,3.17
2023-04-24T13:15:17.170Z,2.05
2023-04-24T13:17:43.964Z,2.90
2023-04-24T13:20:10.962Z,5.65
2023-04-24T13:22:38.186Z,4.45
2023-04-24T13:25:07.236Z,7.32
2023-04-24T13:27:34.455Z,4.80
2023-04-24T13:30:01.462Z,6.57
2023-04-24T13:32:29.755Z,2.90
2023-04-24T13:34:57.845Z,7.07
2023-04-24T13:37:24.474Z,5.85
2023-04-24T13:39:52.330Z,4.13
2023-04-24T13:42:19.841Z,5.57
2023-04-24T13:44:46.483Z,4.40
2023-04-24T13:47:13.171Z,5.63
2023-04-24T13:49:40.850Z,4.65
2023-04-24T13:52:08.530Z,3.45
2023-04-24T13:54:35.177Z,3.95
2023-04-24T13:57:03.798Z,9.13
2023-04-24T13:59:30.671Z,5.65
2023-04-24T14:01:57.311Z,4.82
2023-04-24T14:04:24.051Z,5.25
2023-04-24T14:06:51.433Z,8.70
2023-04-24T14:09:18.067Z,9.00
2023-04-24T14:11:44.822Z,5.30
2023-04-24T14:14:11.549Z,5.18
2023-04-24T14:16:38.197Z,5.47
2023-04-24T14:19:06.408Z,7.75
2023-04-24T14:21:33.635Z,3.88
2023-04-24T14:24:00.557Z,3.95
2023-04-24T14:26:28.243Z,4.63
2023-04-24T14:29:04.104Z,5.82
2023-04-24T14:31:40.824Z,6.80
2023-04-24T14:34:07.477Z,5.13
2023-04-24T14:36:34.086Z,6.00
2023-04-24T14:39:00.660Z,7.50
2023-04-24T14:41:27.295Z,7.00
2023-04-24T14:43:53.873Z,10.52
2023-04-24T14:46:21.066Z,11.93
2023-04-24T14:48:48.021Z,8.25
2023-04-24T14:51:15.606Z,6.22
2023-04-24T14:53:42.301Z,4.63
2023-04-24T14:56:09.037Z,7.80
2023-04-24T14:58:35.933Z,7.57
2023-04-24T15:01:05.504Z,7.22
2023-04-24T15:03:33.208Z,8.07
2023-04-24T15:06:00.572Z,7.10
2023-04-24T15:08:27.478Z,6.20
2023-04-24T15:10:54.741Z,7.95
2023-04-24T15:13:21.608Z,8.65
2023-04-24T15:15:51.523Z,13.55
2023-04-24T15:18:18.335Z,9.43
2023-04-24T15:20:45.384Z,7.20
2023-04-24T15:23:12.642Z,9.00
2023-04-24T15:25:39.627Z,8.43
2023-04-24T15:28:06.993Z,6.93
2023-04-24T15:30:33.896Z,5.20
2023-04-24T15:33:02.116Z,6.60
2023-04-24T15:35:31.679Z,9.77
2023-04-24T15:37:58.621Z,6.65
2023-04-24T15:40:25.521Z,9.60
2023-04-24T15:42:52.302Z,9.55
2023-04-24T15:45:20.495Z,13.50
2023-04-24T15:47:47.675Z,6.35
2023-04-24T15:50:16.936Z,8.82
2023-04-24T15:52:44.204Z,7.00
2023-04-24T15:55:11.218Z,11.90
2023-04-24T15:57:37.993Z,7.07
2023-04-24T16:00:10.862Z,8.80
2023-04-24T16:02:41.213Z,12.80
2023-04-24T16:05:08.746Z,10.73
2023-04-24T16:07:36.100Z,15.35
2023-04-24T16:10:02.809Z,13.48
2023-04-24T16:12:29.698Z,9.60
2023-04-24T16:14:56.521Z,9.80
2023-04-24T16:17:23.786Z,12.43
2023-04-24T16:19:50.438Z,12.15
2023-04-24T16:22:17.155Z,11.90
2023-04-24T16:24:44.620Z,15.00
2023-04-24T16:27:11.275Z,17.63
2023-04-24T16:29:37.910Z,13.48
2023-04-24T16:32:04.658Z,10.07
2023-04-24T16:34:31.380Z,7.38
2023-04-24T16:36:58.304Z,11.85
2023-04-24T16:39:25.906Z,10.75
2023-04-24T16:41:59.603Z,11.65
2023-04-24T16:44:26.936Z,10.82
2023-04-24T16:47:19.502Z,11.27
2023-04-24T16:49:46.337Z,13.70
2023-04-24T16:52:15.107Z,13.25
2023-04-24T16:54:42.881Z,15.05
2023-04-24T16:57:11.962Z,13.55
2023-04-24T16:59:38.810Z,14.45
2023-04-24T17:02:09.240Z,9.52
2023-04-24T17:04:36.108Z,14.20
2023-04-24T17:07:03.235Z,12.55
2023-04-24T17:09:30.686Z,11.60
2023-04-24T17:11:57.528Z,8.45
2023-04-24T17:14:26.357Z,14.05
2023-04-24T17:16:53.517Z,12.65
2023-04-24T17:19:21.369Z,17.15
2023-04-24T17:21:48.178Z,13.18
2023-04-24T17:24:14.927Z,14.38
2023-04-24T17:26:41.778Z,17.58
2023-04-24T17:29:08.607Z,11.80
2023-04-24T17:31:35.490Z,11.13
2023-04-24T17:34:02.606Z,15.00
2023-04-24T17:36:29.749Z,10.25
2023-04-24T17:38:56.603Z,15.00
2023-04-24T17:41:23.434Z,20.35
2023-04-24T17:43:50.282Z,22.98
2023-04-24T17:46:17.208Z,15.52
2023-04-24T17:48:44.071Z,12.18
2023-04-24T17:51:10.945Z,13.00
2023-04-24T17:53:37.819Z,21.38
2023-04-24T17:56:04.737Z,12.40
2023-04-24T17:58:31.657Z,15.60
2023-04-24T18:00:58.515Z,13.25
2023-04-24T18:03:25.562Z,18.90
2023-04-24T18:05:52.498Z,13.18
2023-04-24T18:08:19.560Z,13.05
2023-04-24T18:10:46.484Z,13.35
2023-04-24T18:13:13.333Z,16.48
2023-04-24T18:15:43.683Z,15.52
2023-04-24T18:18:11.337Z,12.25
2023-04-24T18:20:38.587Z,19.17
2023-04-24T18:23:05.836Z,9.98
2023-04-24T18:25:32.868Z,17.92
2023-04-24T18:27:59.593Z,12.88
2023-04-24T18:30:26.965Z,11.90
2023-04-24T18:32:53.950Z,12.75
2023-04-24T18:35:21.538Z,12.43
2023-04-24T18:37:48.349Z,13.45
2023-04-24T18:40:15.452Z,16.15
2023-04-24T18:42:42.359Z,13.57
2023-04-24T18:45:10.923Z,14.13
2023-04-24T18:47:39.303Z,16.35
2023-04-24T18:50:14.543Z,12.27
2023-04-24T18:52:41.247Z,14.90
2023-04-24T18:55:09.665Z,11.63
2023-04-24T18:57:36.351Z,20.15
2023-04-24T19:00:04.020Z,16.10
2023-04-24T19:02:30.964Z,16.73
2023-04-24T19:04:57.720Z,14.38
2023-04-24T19:07:24.370Z,13.95
2023-04-24T19:09:50.974Z,14.15
2023-04-24T19:12:17.636Z,18.15
2023-04-24T19:14:46.064Z,15.82
2023-04-24T19:17:12.749Z,18.05
2023-04-24T19:19:39.463Z,15.82
2023-04-24T19:22:07.554Z,18.60
2023-04-24T19:24:34.458Z,21.15
2023-04-24T19:27:01.605Z,17.13
2023-04-24T19:29:28.480Z,16.45
2023-04-24T19:31:55.573Z,17.60
2023-04-24T19:34:22.253Z,18.38
2023-04-24T19:36:48.851Z,14.93
2023-04-24T19:39:16.061Z,17.63
2023-04-24T19:41:42.632Z,14.05
2023-04-24T19:44:10.594Z,20.15
2023-04-24T19:46:37.612Z,15.23
2023-04-24T19:49:04.392Z,18.45
2023-04-24T19:51:32.275Z,15.77
2023-04-24T19:53:59.539Z,17.20
2023-04-24T19:56:26.116Z,16.50
2023-04-24T19:58:52.703Z,15.45
2023-04-24T20:01:19.354Z,16.30
2023-04-24T20:03:46.183Z,21.58
2023-04-24T20:06:12.808Z,18.63
2023-04-24T20:08:39.562Z,16.33
2023-04-24T20:11:06.400Z,13.60
2023-04-24T20:13:33.146Z,19.90
2023-04-24T20:16:00.270Z,19.08
2023-04-24T20:18:27.134Z,17.50
2023-04-24T20:20:56.818Z,14.77
2023-04-24T20:23:23.482Z,16.35
2023-04-24T20:25:50.320Z,19.02
2023-04-24T20:28:18.183Z,20.85
2023-04-24T20:30:45.972Z,22.02
2023-04-24T20:33:12.627Z,12.57
2023-04-24T20:35:39.452Z,21.15
2023-04-24T20:38:06.798Z,18.00
2023-04-24T20:40:35.498Z,20.10
2023-04-24T20:43:04.307Z,13.90
2023-04-24T20:45:31.307Z,17.60
2023-04-24T20:47:58.043Z,17.27
2023-04-24T20:50:25.324Z,21.20
2023-04-24T20:52:52.080Z,11.23
2023-04-24T20:55:18.870Z,17.02
2023-04-24T20:57:45.622Z,25.42
2023-04-24T21:00:13.621Z,17.17
2023-04-24T21:02:40.961Z,21.50
2023-04-24T21:05:08.314Z,20.98
2023-04-24T21:07:35.156Z,20.88
2023-04-24T21:10:02.011Z,16.27
2023-04-24T21:12:28.733Z,16.98
2023-04-24T21:14:55.506Z,19.83
2023-04-24T21:17:22.452Z,16.30
2023-04-24T21:19:49.267Z,25.15
2023-04-24T21:22:16.147Z,20.67
2023-04-24T21:24:42.952Z,34.92
2023-04-24T21:27:09.790Z,22.45
2023-04-24T21:29:37.500Z,19.67
2023-04-24T21:32:04.883Z,16.58
2023-04-24T21:34:58.893Z,19.20
2023-04-24T21:37:28.544Z,21.52
2023-04-24T21:39:55.264Z,13.50
2023-04-24T21:42:21.945Z,19.83
2023-04-24T21:44:48.696Z,18.70
2023-04-24T21:47:15.425Z,14.98
2023-04-24T21:49:42.478Z,13.07
2023-04-24T21:52:09.125Z,22.92
2023-04-24T21:54:35.717Z,16.48
2023-04-24T21:57:02.980Z,15.13
2023-04-24T21:59:30.176Z,10.48
2023-04-24T22:01:57.015Z,13.57
2023-04-24T22:04:23.819Z,13.98
2023-04-24T22:06:53.190Z,16.40
2023-04-24T22:09:19.979Z,17.38
2023-04-24T22:11:46.642Z,15.07
2023-04-24T22:14:14.787Z,16.10
2023-04-24T22:16:41.873Z,14.63
2023-04-24T22:19:08.960Z,13.75
2023-04-24T22:21:35.821Z,17.10
2023-04-24T22:24:02.553Z,13.60
2023-04-24T22:26:29.149Z,14.98
2023-04-24T22:28:55.740Z,16.60
2023-04-24T22:31:23.104Z,14.48
2023-04-24T22:33:51.642Z,11.60
2023-04-24T22:36:18.779Z,11.65
2023-04-24T22:38:45.359Z,10.40
2023-04-24T22:41:12.405Z,8.77
2023-04-24T22:43:39.280Z,13.73
2023-04-24T22:46:06.088Z,10.40
2023-04-24T22:48:34.592Z,9.20
2023-04-24T22:51:01.278Z,12.85
2023-04-24T22:53:28.818Z,10.85
2023-04-24T22:55:58.636Z,11.73
2023-04-24T22:58:25.574Z,8.10
2023-04-24T23:00:52.607Z,8.38
2023-04-24T23:03:19.344Z,9.88
2023-04-24T23:05:46.100Z,8.23
2023-04-24T23:08:12.756Z,9.32
2023-04-24T23:10:39.620Z,9.23
2023-04-24T23:13:06.386Z,11.35
2023-04-24T23:15:33.099Z,10.20
2023-04-24T23:17:59.762Z,23.58
2023-04-24T23:20:26.704Z,24.15
2023-04-24T23:22:53.454Z,22.83
2023-04-24T23:25:20.236Z,25.88
2023-04-24T23:27:47.638Z,14.98
2023-04-24T23:30:14.302Z,9.45
2023-04-24T23:32:40.863Z,16.58
2023-04-24T23:35:08.862Z,18.42
2023-04-24T23:37:36.276Z,15.13
2023-04-24T23:40:03.030Z,8.73
2023-04-24T23:42:29.638Z,9.27
2023-04-24T23:44:56.275Z,18.48
2023-04-24T23:47:22.930Z,18.90
2023-04-24T23:49:49.571Z,20.15
2023-04-24T23:52:16.274Z,16.85
2023-04-24T23:54:42.918Z,17.77
2023-04-24T23:57:09.663Z,9.75
2023-04-24T23:59:37.247Z,9.82
